sensor_id;sensor_type;location;lat;lon;timestamp;P1;durP1;ratioP1;P2;durP2;ratioP2
11777;SDS011;5946;51.770;8.548;2023-04-15T00:01:23;7.97;;;6.67;;
11777;SDS011;5946;51.770;8.548;2023-04-15T00:03:50;7.60;;;6.20;;
11777;SDS011;5946;51.770;8.548;2023-04-15T00:06:16;9.27;;;6.50;;
11777;SDS011;5946;51.770;8.548;2023-04-15T00:08:43;8.20;;;6.63;;
11777;SDS011;5946;51.770;8.548;2023-04-15T00:11:09;8.63;;;6.27;;
11777;SDS011;5946;51.770;8.548;2023-04-15T00:13:35;8.67;;;6.47;;
11777;SDS011;5946;51.770;8.548;2023-04-15T00:16:01;7.60;;;6.60;;
11777;SDS011;5946;51.770;8.548;2023-04-15T00:18:27;10.27;;;6.90;;
11777;SDS011;5946;51.770;8.548;2023-04-15T00:20:53;10.50;;;7.00;;
11777;SDS011;5946;51.770;8.548;2023-04-15T00:23:19;7.73;;;6.93;;
11777;SDS011;5946;51.770;8.548;2023-04-15T00:25:46;9.37;;;6.60;;
11777;SDS011;5946;51.770;8.548;2023-04-15T00:28:12;7.53;;;6.60;;
11777;SDS011;5946;51.770;8.548;2023-04-15T00:30:38;7.33;;;6.27;;
11777;SDS011;5946;51.770;8.548;2023-04-15T00:33:04;7.87;;;6.90;;
11777;SDS011;5946;51.770;8.548;2023-04-15T00:35:30;8.77;;;7.03;;
11777;SDS011;5946;51.770;8.548;2023-04-15T00:37:57;9.03;;;7.07;;
11777;SDS011;5946;51.770;8.548;2023-04-15T00:40:24;9.43;;;7.07;;
11777;SDS011;5946;51.770;8.548;2023-04-15T00:42:50;9.17;;;7.60;;
11777;SDS011;5946;51.770;8.548;2023-04-15T00:45:16;9.20;;;7.43;;
11777;SDS011;5946;51.770;8.548;2023-04-15T00:47:43;9.53;;;7.70;;
11777;SDS011;5946;51.770;8.548;2023-04-15T00:50:10;9.23;;;7.40;;
11777;SDS011;5946;51.770;8.548;2023-04-15T00:52:36;8.20;;;7.30;;
11777;SDS011;5946;51.770;8.548;2023-04-15T00:55:03;11.10;;;7.80;;
11777;SDS011;5946;51.770;8.548;2023-04-15T00:57:29;9.03;;;7.40;;
11777;SDS011;5946;51.770;8.548;2023-04-15T00:59:55;8.87;;;7.87;;
11777;SDS011;5946;51.770;8.548;2023-04-15T01:02:22;10.30;;;8.50;;
11777;SDS011;5946;51.770;8.548;2023-04-15T01:04:48;9.70;;;8.37;;
11777;SDS011;5946;51.770;8.548;2023-04-15T01:07:14;10.30;;;8.30;;
11777;SDS011;5946;51.770;8.548;2023-04-15T01:09:40;11.07;;;8.37;;
11777;SDS011;5946;51.770;8.548;2023-04-15T01:12:06;10.43;;;7.37;;
11777;SDS011;5946;51.770;8.548;2023-04-15T01:14:32;9.87;;;8.30;;
11777;SDS011;5946;51.770;8.548;2023-04-15T01:16:59;12.90;;;8.13;;
11777;SDS011;5946;51.770;8.548;2023-04-15T01:19:25;9.73;;;8.17;;
11777;SDS011;5946;51.770;8.548;2023-04-15T01:21:51;10.20;;;8.10;;
11777;SDS011;5946;51.770;8.548;2023-04-15T01:24:18;12.90;;;9.40;;
11777;SDS011;5946;51.770;8.548;2023-04-15T01:26:44;11.93;;;8.63;;
11777;SDS011;5946;51.770;8.548;2023-04-15T01:29:10;10.73;;;8.53;;
11777;SDS011;5946;51.770;8.548;2023-04-15T01:31:37;10.83;;;8.80;;
11777;SDS011;5946;51.770;8.548;2023-04-15T01:34:03;13.53;;;8.50;;
11777;SDS011;5946;51.770;8.548;2023-04-15T01:36:29;11.87;;;9.17;;
11777;SDS011;5946;51.770;8.548;2023-04-15T01:38:55;13.70;;;9.13;;
11777;SDS011;5946;51.770;8.548;2023-04-15T01:41:25;13.30;;;9.70;;
11777;SDS011;5946;51.770;8.548;2023-04-15T01:43:51;13.63;;;9.77;;
11777;SDS011;5946;51.770;8.548;2023-04-15T01:46:17;12.07;;;9.93;;
11777;SDS011;5946;51.770;8.548;2023-04-15T01:48:43;12.43;;;10.07;;
11777;SDS011;5946;51.770;8.548;2023-04-15T01:51:09;13.43;;;10.10;;
11777;SDS011;5946;51.770;8.548;2023-04-15T01:53:36;13.30;;;10.93;;
11777;SDS011;5946;51.770;8.548;2023-04-15T01:56:02;15.40;;;11.33;;
11777;SDS011;5946;51.770;8.548;2023-04-15T01:58:28;17.83;;;11.73;;
11777;SDS011;5946;51.770;8.548;2023-04-15T02:00:54;15.20;;;11.43;;
11777;SDS011;5946;51.770;8.548;2023-04-15T02:03:20;19.97;;;12.70;;
11777;SDS011;5946;51.770;8.548;2023-04-15T02:05:47;19.07;;;11.87;;
11777;SDS011;5946;51.770;8.548;2023-04-15T02:08:13;21.13;;;13.43;;
11777;SDS011;5946;51.770;8.548;2023-04-15T02:10:39;19.37;;;12.80;;
11777;SDS011;5946;51.770;8.548;2023-04-15T02:13:05;18.00;;;13.17;;
11777;SDS011;5946;51.770;8.548;2023-04-15T02:15:31;22.20;;;13.90;;
11777;SDS011;5946;51.770;8.548;2023-04-15T02:17:58;17.10;;;12.20;;
11777;SDS011;5946;51.770;8.548;2023-04-15T02:20:25;18.50;;;11.63;;
11777;SDS011;5946;51.770;8.548;2023-04-15T02:22:51;16.13;;;11.93;;
11777;SDS011;5946;51.770;8.548;2023-04-15T02:25:17;18.23;;;13.03;;
11777;SDS011;5946;51.770;8.548;2023-04-15T02:27:44;14.57;;;11.60;;
11777;SDS011;5946;51.770;8.548;2023-04-15T02:30:10;15.00;;;11.00;;
11777;SDS011;5946;51.770;8.548;2023-04-15T02:32:36;14.87;;;11.57;;
11777;SDS011;5946;51.770;8.548;2023-04-15T02:35:03;16.73;;;11.83;;
11777;SDS011;5946;51.770;8.548;2023-04-15T02:37:29;17.97;;;12.43;;
11777;SDS011;5946;51.770;8.548;2023-04-15T02:39:55;16.00;;;11.90;;
11777;SDS011;5946;51.770;8.548;2023-04-15T02:42:21;18.20;;;12.37;;
11777;SDS011;5946;51.770;8.548;2023-04-15T02:44:51;16.90;;;12.13;;
11777;SDS011;5946;51.770;8.548;2023-04-15T02:47:18;15.27;;;12.77;;
11777;SDS011;5946;51.770;8.548;2023-04-15T02:49:44;18.93;;;12.53;;
11777;SDS011;5946;51.770;8.548;2023-04-15T02:52:10;17.77;;;13.87;;
11777;SDS011;5946;51.770;8.548;2023-04-15T02:54:37;17.00;;;12.33;;
11777;SDS011;5946;51.770;8.548;2023-04-15T02:57:03;20.63;;;15.73;;
11777;SDS011;5946;51.770;8.548;2023-04-15T02:59:30;20.90;;;15.03;;
11777;SDS011;5946;51.770;8.548;2023-04-15T03:01:56;20.27;;;15.27;;
11777;SDS011;5946;51.770;8.548;2023-04-15T03:04:25;20.63;;;14.47;;
11777;SDS011;5946;51.770;8.548;2023-04-15T03:06:54;18.93;;;14.97;;
11777;SDS011;5946;51.770;8.548;2023-04-15T03:09:20;20.63;;;14.30;;
11777;SDS011;5946;51.770;8.548;2023-04-15T03:11:46;17.60;;;13.73;;
11777;SDS011;5946;51.770;8.548;2023-04-15T03:14:12;20.90;;;15.00;;
11777;SDS011;5946;51.770;8.548;2023-04-15T03:16:38;18.87;;;13.90;;
11777;SDS011;5946;51.770;8.548;2023-04-15T03:19:04;19.90;;;14.57;;
11777;SDS011;5946;51.770;8.548;2023-04-15T03:21:30;21.90;;;15.40;;
11777;SDS011;5946;51.770;8.548;2023-04-15T03:23:57;19.00;;;14.30;;
11777;SDS011;5946;51.770;8.548;2023-04-15T03:26:24;20.80;;;15.40;;
11777;SDS011;5946;51.770;8.548;2023-04-15T03:28:51;24.53;;;15.93;;
11777;SDS011;5946;51.770;8.548;2023-04-15T03:31:17;23.33;;;16.30;;
11777;SDS011;5946;51.770;8.548;2023-04-15T03:33:43;26.47;;;17.97;;
11777;SDS011;5946;51.770;8.548;2023-04-15T03:36:08;23.70;;;17.57;;
11777;SDS011;5946;51.770;8.548;2023-04-15T03:38:34;23.17;;;16.70;;
11777;SDS011;5946;51.770;8.548;2023-04-15T03:41:00;23.57;;;16.33;;
11777;SDS011;5946;51.770;8.548;2023-04-15T03:43:26;21.80;;;16.87;;
11777;SDS011;5946;51.770;8.548;2023-04-15T03:45:52;27.90;;;18.50;;
11777;SDS011;5946;51.770;8.548;2023-04-15T03:48:18;27.10;;;19.13;;
11777;SDS011;5946;51.770;8.548;2023-04-15T03:50:45;25.93;;;18.43;;
11777;SDS011;5946;51.770;8.548;2023-04-15T03:53:11;28.37;;;20.10;;
11777;SDS011;5946;51.770;8.548;2023-04-15T03:55:37;27.80;;;19.80;;
11777;SDS011;5946;51.770;8.548;2023-04-15T03:58:03;26.23;;;19.90;;
11777;SDS011;5946;51.770;8.548;2023-04-15T04:00:29;24.50;;;19.13;;
11777;SDS011;5946;51.770;8.548;2023-04-15T04:02:55;28.90;;;19.47;;
11777;SDS011;5946;51.770;8.548;2023-04-15T04:05:21;23.70;;;17.77;;
11777;SDS011;5946;51.770;8.548;2023-04-15T04:07:47;25.57;;;17.83;;
11777;SDS011;5946;51.770;8.548;2023-04-15T04:10:13;27.30;;;19.60;;
11777;SDS011;5946;51.770;8.548;2023-04-15T04:12:39;29.93;;;21.70;;
11777;SDS011;5946;51.770;8.548;2023-04-15T04:15:05;31.40;;;23.03;;
11777;SDS011;5946;51.770;8.548;2023-04-15T04:17:31;34.67;;;23.87;;
11777;SDS011;5946;51.770;8.548;2023-04-15T04:19:57;37.37;;;24.87;;
11777;SDS011;5946;51.770;8.548;2023-04-15T04:22:23;40.40;;;24.77;;
11777;SDS011;5946;51.770;8.548;2023-04-15T04:24:49;34.83;;;24.20;;
11777;SDS011;5946;51.770;8.548;2023-04-15T04:27:15;34.67;;;24.03;;
11777;SDS011;5946;51.770;8.548;2023-04-15T04:29:41;36.47;;;24.23;;
11777;SDS011;5946;51.770;8.548;2023-04-15T04:32:07;36.40;;;24.37;;
11777;SDS011;5946;51.770;8.548;2023-04-15T04:34:33;33.20;;;23.30;;
11777;SDS011;5946;51.770;8.548;2023-04-15T04:37:00;36.20;;;23.63;;
11777;SDS011;5946;51.770;8.548;2023-04-15T04:39:26;34.03;;;24.43;;
11777;SDS011;5946;51.770;8.548;2023-04-15T04:41:51;37.53;;;24.30;;
11777;SDS011;5946;51.770;8.548;2023-04-15T04:44:17;32.40;;;23.00;;
11777;SDS011;5946;51.770;8.548;2023-04-15T04:46:43;33.07;;;23.07;;
11777;SDS011;5946;51.770;8.548;2023-04-15T04:49:09;33.40;;;23.80;;
11777;SDS011;5946;51.770;8.548;2023-04-15T04:51:35;31.73;;;23.27;;
11777;SDS011;5946;51.770;8.548;2023-04-15T04:54:01;34.90;;;23.60;;
11777;SDS011;5946;51.770;8.548;2023-04-15T04:56:28;35.97;;;24.10;;
11777;SDS011;5946;51.770;8.548;2023-04-15T04:58:54;33.03;;;24.33;;
11777;SDS011;5946;51.770;8.548;2023-04-15T05:01:20;38.47;;;26.13;;
11777;SDS011;5946;51.770;8.548;2023-04-15T05:03:46;38.23;;;25.30;;
11777;SDS011;5946;51.770;8.548;2023-04-15T05:06:12;36.70;;;25.27;;
11777;SDS011;5946;51.770;8.548;2023-04-15T05:08:38;36.77;;;24.60;;
11777;SDS011;5946;51.770;8.548;2023-04-15T05:11:05;35.40;;;25.03;;
11777;SDS011;5946;51.770;8.548;2023-04-15T05:13:31;36.27;;;24.67;;
11777;SDS011;5946;51.770;8.548;2023-04-15T05:15:57;38.87;;;27.27;;
11777;SDS011;5946;51.770;8.548;2023-04-15T05:18:23;34.37;;;24.53;;
11777;SDS011;5946;51.770;8.548;2023-04-15T05:20:49;40.03;;;26.60;;
11777;SDS011;5946;51.770;8.548;2023-04-15T05:23:15;36.63;;;25.67;;
11777;SDS011;5946;51.770;8.548;2023-04-15T05:25:41;36.00;;;25.47;;
11777;SDS011;5946;51.770;8.548;2023-04-15T05:28:07;35.13;;;24.70;;
11777;SDS011;5946;51.770;8.548;2023-04-15T05:30:33;40.03;;;26.27;;
11777;SDS011;5946;51.770;8.548;2023-04-15T05:32:59;34.60;;;25.17;;
11777;SDS011;5946;51.770;8.548;2023-04-15T05:35:25;35.97;;;25.60;;
11777;SDS011;5946;51.770;8.548;2023-04-15T05:37:51;32.67;;;24.77;;
11777;SDS011;5946;51.770;8.548;2023-04-15T05:40:17;36.97;;;24.97;;
11777;SDS011;5946;51.770;8.548;2023-04-15T05:42:44;29.73;;;23.07;;
11777;SDS011;5946;51.770;8.548;2023-04-15T05:45:10;34.20;;;22.93;;
11777;SDS011;5946;51.770;8.548;2023-04-15T05:47:36;31.07;;;23.43;;
11777;SDS011;5946;51.770;8.548;2023-04-15T05:50:02;30.77;;;22.07;;
11777;SDS011;5946;51.770;8.548;2023-04-15T05:52:28;30.63;;;22.70;;
11777;SDS011;5946;51.770;8.548;2023-04-15T05:54:54;31.10;;;20.87;;
11777;SDS011;5946;51.770;8.548;2023-04-15T05:57:20;25.53;;;20.07;;
11777;SDS011;5946;51.770;8.548;2023-04-15T05:59:47;22.73;;;18.47;;
11777;SDS011;5946;51.770;8.548;2023-04-15T06:02:13;24.23;;;18.80;;
11777;SDS011;5946;51.770;8.548;2023-04-15T06:04:39;24.63;;;18.13;;
11777;SDS011;5946;51.770;8.548;2023-04-15T06:07:05;24.97;;;18.03;;
11777;SDS011;5946;51.770;8.548;2023-04-15T06:09:31;21.23;;;17.40;;
11777;SDS011;5946;51.770;8.548;2023-04-15T06:11:57;23.07;;;18.20;;
11777;SDS011;5946;51.770;8.548;2023-04-15T06:14:23;22.47;;;17.60;;
11777;SDS011;5946;51.770;8.548;2023-04-15T06:16:49;21.63;;;17.57;;
11777;SDS011;5946;51.770;8.548;2023-04-15T06:19:15;23.57;;;17.57;;
11777;SDS011;5946;51.770;8.548;2023-04-15T06:21:42;23.03;;;17.37;;
11777;SDS011;5946;51.770;8.548;2023-04-15T06:24:08;20.87;;;16.57;;
11777;SDS011;5946;51.770;8.548;2023-04-15T06:26:34;22.57;;;16.07;;
11777;SDS011;5946;51.770;8.548;2023-04-15T06:29:00;20.97;;;16.47;;
11777;SDS011;5946;51.770;8.548;2023-04-15T06:31:26;20.53;;;15.93;;
11777;SDS011;5946;51.770;8.548;2023-04-15T06:33:52;22.90;;;16.27;;
11777;SDS011;5946;51.770;8.548;2023-04-15T06:36:18;20.30;;;15.77;;
11777;SDS011;5946;51.770;8.548;2023-04-15T06:38:45;20.80;;;16.63;;
11777;SDS011;5946;51.770;8.548;2023-04-15T06:41:11;19.37;;;15.87;;
11777;SDS011;5946;51.770;8.548;2023-04-15T06:43:37;19.73;;;16.27;;
11777;SDS011;5946;51.770;8.548;2023-04-15T06:46:03;20.43;;;15.83;;
11777;SDS011;5946;51.770;8.548;2023-04-15T06:48:29;19.73;;;16.13;;
11777;SDS011;5946;51.770;8.548;2023-04-15T06:50:55;22.27;;;17.00;;
11777;SDS011;5946;51.770;8.548;2023-04-15T06:53:22;20.23;;;16.47;;
11777;SDS011;5946;51.770;8.548;2023-04-15T06:55:48;20.27;;;16.57;;
11777;SDS011;5946;51.770;8.548;2023-04-15T06:58:14;19.70;;;15.80;;
11777;SDS011;5946;51.770;8.548;2023-04-15T07:00:40;23.47;;;17.07;;
11777;SDS011;5946;51.770;8.548;2023-04-15T07:03:06;23.07;;;16.70;;
11777;SDS011;5946;51.770;8.548;2023-04-15T07:05:35;22.57;;;15.97;;
11777;SDS011;5946;51.770;8.548;2023-04-15T07:08:01;22.07;;;15.97;;
11777;SDS011;5946;51.770;8.548;2023-04-15T07:10:27;23.13;;;16.17;;
11777;SDS011;5946;51.770;8.548;2023-04-15T07:12:52;21.93;;;16.63;;
11777;SDS011;5946;51.770;8.548;2023-04-15T07:15:19;21.30;;;15.90;;
11777;SDS011;5946;51.770;8.548;2023-04-15T07:17:44;19.00;;;15.77;;
11777;SDS011;5946;51.770;8.548;2023-04-15T07:20:11;18.33;;;14.97;;
11777;SDS011;5946;51.770;8.548;2023-04-15T07:22:37;23.50;;;16.23;;
11777;SDS011;5946;51.770;8.548;2023-04-15T07:25:03;22.43;;;16.40;;
11777;SDS011;5946;51.770;8.548;2023-04-15T07:27:29;21.47;;;16.10;;
11777;SDS011;5946;51.770;8.548;2023-04-15T07:29:55;20.43;;;15.60;;
11777;SDS011;5946;51.770;8.548;2023-04-15T07:32:21;18.77;;;15.03;;
11777;SDS011;5946;51.770;8.548;2023-04-15T07:34:47;20.47;;;16.77;;
11777;SDS011;5946;51.770;8.548;2023-04-15T07:37:13;20.27;;;16.33;;
11777;SDS011;5946;51.770;8.548;2023-04-15T07:39:39;23.30;;;17.57;;
11777;SDS011;5946;51.770;8.548;2023-04-15T07:42:05;23.63;;;18.43;;
11777;SDS011;5946;51.770;8.548;2023-04-15T07:44:32;26.50;;;19.93;;
11777;SDS011;5946;51.770;8.548;2023-04-15T07:46:58;26.00;;;20.53;;
11777;SDS011;5946;51.770;8.548;2023-04-15T07:49:24;29.97;;;21.93;;
11777;SDS011;5946;51.770;8.548;2023-04-15T07:51:50;27.27;;;20.63;;
11777;SDS011;5946;51.770;8.548;2023-04-15T07:54:16;29.57;;;21.83;;
11777;SDS011;5946;51.770;8.548;2023-04-15T07:56:42;28.87;;;23.47;;
11777;SDS011;5946;51.770;8.548;2023-04-15T07:59:08;30.27;;;23.30;;
11777;SDS011;5946;51.770;8.548;2023-04-15T08:01:34;33.33;;;25.73;;
11777;SDS011;5946;51.770;8.548;2023-04-15T08:04:00;36.73;;;26.53;;
11777;SDS011;5946;51.770;8.548;2023-04-15T08:06:27;36.73;;;26.90;;
11777;SDS011;5946;51.770;8.548;2023-04-15T08:08:53;36.00;;;25.70;;
11777;SDS011;5946;51.770;8.548;2023-04-15T08:11:19;31.00;;;22.43;;
11777;SDS011;5946;51.770;8.548;2023-04-15T08:13:45;29.77;;;21.53;;
11777;SDS011;5946;51.770;8.548;2023-04-15T08:16:13;30.60;;;21.87;;
11777;SDS011;5946;51.770;8.548;2023-04-15T08:18:39;27.93;;;21.27;;
11777;SDS011;5946;51.770;8.548;2023-04-15T08:21:05;28.93;;;20.80;;
11777;SDS011;5946;51.770;8.548;2023-04-15T08:23:31;31.00;;;22.53;;
11777;SDS011;5946;51.770;8.548;2023-04-15T08:25:57;30.47;;;21.83;;
11777;SDS011;5946;51.770;8.548;2023-04-15T08:28:23;33.57;;;21.93;;
11777;SDS011;5946;51.770;8.548;2023-04-15T08:30:49;33.37;;;23.50;;
11777;SDS011;5946;51.770;8.548;2023-04-15T08:33:17;36.43;;;23.63;;
11777;SDS011;5946;51.770;8.548;2023-04-15T08:35:43;35.50;;;23.40;;
11777;SDS011;5946;51.770;8.548;2023-04-15T08:38:09;33.50;;;22.40;;
11777;SDS011;5946;51.770;8.548;2023-04-15T08:40:39;33.60;;;22.33;;
11777;SDS011;5946;51.770;8.548;2023-04-15T08:43:06;34.87;;;23.07;;
11777;SDS011;5946;51.770;8.548;2023-04-15T08:45:33;30.27;;;21.03;;
11777;SDS011;5946;51.770;8.548;2023-04-15T08:48:00;29.33;;;20.13;;
11777;SDS011;5946;51.770;8.548;2023-04-15T08:50:28;26.20;;;18.63;;
11777;SDS011;5946;51.770;8.548;2023-04-15T08:52:57;25.80;;;18.37;;
11777;SDS011;5946;51.770;8.548;2023-04-15T08:55:24;23.43;;;16.70;;
11777;SDS011;5946;51.770;8.548;2023-04-15T08:57:53;24.97;;;17.17;;
11777;SDS011;5946;51.770;8.548;2023-04-15T09:00:19;26.20;;;16.23;;
11777;SDS011;5946;51.770;8.548;2023-04-15T09:02:45;21.10;;;16.20;;
11777;SDS011;5946;51.770;8.548;2023-04-15T09:05:11;21.90;;;15.70;;
11777;SDS011;5946;51.770;8.548;2023-04-15T09:07:37;21.90;;;15.97;;
11777;SDS011;5946;51.770;8.548;2023-04-15T09:10:03;19.77;;;15.70;;
11777;SDS011;5946;51.770;8.548;2023-04-15T09:12:32;22.33;;;16.20;;
11777;SDS011;5946;51.770;8.548;2023-04-15T09:14:58;23.00;;;16.93;;
11777;SDS011;5946;51.770;8.548;2023-04-15T09:17:25;21.80;;;15.23;;
11777;SDS011;5946;51.770;8.548;2023-04-15T09:20:06;20.30;;;15.47;;
11777;SDS011;5946;51.770;8.548;2023-04-15T09:22:32;24.27;;;16.10;;
11777;SDS011;5946;51.770;8.548;2023-04-15T09:24:58;19.40;;;15.33;;
11777;SDS011;5946;51.770;8.548;2023-04-15T09:27:25;21.57;;;16.03;;
11777;SDS011;5946;51.770;8.548;2023-04-15T09:29:52;20.43;;;14.53;;
11777;SDS011;5946;51.770;8.548;2023-04-15T09:32:18;20.47;;;15.87;;
11777;SDS011;5946;51.770;8.548;2023-04-15T09:34:47;21.80;;;14.83;;
11777;SDS011;5946;51.770;8.548;2023-04-15T09:37:13;23.40;;;15.87;;
11777;SDS011;5946;51.770;8.548;2023-04-15T09:39:46;23.73;;;16.93;;
11777;SDS011;5946;51.770;8.548;2023-04-15T09:42:12;26.00;;;17.90;;
11777;SDS011;5946;51.770;8.548;2023-04-15T09:44:38;25.37;;;17.37;;
11777;SDS011;5946;51.770;8.548;2023-04-15T09:47:04;23.00;;;17.57;;
11777;SDS011;5946;51.770;8.548;2023-04-15T09:49:30;25.30;;;17.03;;
11777;SDS011;5946;51.770;8.548;2023-04-15T09:51:57;23.57;;;16.27;;
11777;SDS011;5946;51.770;8.548;2023-04-15T09:54:24;24.67;;;16.03;;
11777;SDS011;5946;51.770;8.548;2023-04-15T09:57:03;26.80;;;17.87;;
11777;SDS011;5946;51.770;8.548;2023-04-15T09:59:29;23.53;;;16.27;;
11777;SDS011;5946;51.770;8.548;2023-04-15T10:01:55;22.97;;;16.27;;
11777;SDS011;5946;51.770;8.548;2023-04-15T10:04:21;24.20;;;16.67;;
11777;SDS011;5946;51.770;8.548;2023-04-15T10:06:48;25.53;;;16.23;;
11777;SDS011;5946;51.770;8.548;2023-04-15T10:09:14;24.33;;;15.70;;
11777;SDS011;5946;51.770;8.548;2023-04-15T10:11:41;22.77;;;15.37;;
11777;SDS011;5946;51.770;8.548;2023-04-15T10:14:08;22.00;;;15.00;;
11777;SDS011;5946;51.770;8.548;2023-04-15T10:16:35;20.23;;;14.37;;
11777;SDS011;5946;51.770;8.548;2023-04-15T10:19:03;18.97;;;14.20;;
11777;SDS011;5946;51.770;8.548;2023-04-15T10:21:30;17.93;;;13.20;;
11777;SDS011;5946;51.770;8.548;2023-04-15T10:23:57;18.53;;;13.00;;
11777;SDS011;5946;51.770;8.548;2023-04-15T10:26:25;20.60;;;12.93;;
11777;SDS011;5946;51.770;8.548;2023-04-15T10:28:51;21.23;;;13.80;;
11777;SDS011;5946;51.770;8.548;2023-04-15T10:31:17;18.37;;;13.30;;
11777;SDS011;5946;51.770;8.548;2023-04-15T10:33:43;17.17;;;12.30;;
11777;SDS011;5946;51.770;8.548;2023-04-15T10:36:11;20.47;;;12.47;;
11777;SDS011;5946;51.770;8.548;2023-04-15T10:38:41;16.23;;;12.30;;
11777;SDS011;5946;51.770;8.548;2023-04-15T10:41:26;17.40;;;12.37;;
11777;SDS011;5946;51.770;8.548;2023-04-15T10:44:03;18.33;;;12.70;;
11777;SDS011;5946;51.770;8.548;2023-04-15T10:49:10;16.50;;;12.07;;
11777;SDS011;5946;51.770;8.548;2023-04-15T10:51:37;16.13;;;11.57;;
11777;SDS011;5946;51.770;8.548;2023-04-15T10:54:07;19.37;;;12.80;;
11777;SDS011;5946;51.770;8.548;2023-04-15T10:56:33;17.67;;;11.60;;
11777;SDS011;5946;51.770;8.548;2023-04-15T10:58:59;15.70;;;10.93;;
11777;SDS011;5946;51.770;8.548;2023-04-15T11:04:10;13.27;;;10.77;;
11777;SDS011;5946;51.770;8.548;2023-04-15T11:06:43;16.43;;;11.10;;
11777;SDS011;5946;51.770;8.548;2023-04-15T11:09:11;14.63;;;11.67;;
11777;SDS011;5946;51.770;8.548;2023-04-15T11:12:06;16.53;;;11.50;;
11777;SDS011;5946;51.770;8.548;2023-04-15T11:14:33;17.87;;;12.27;;
11777;SDS011;5946;51.770;8.548;2023-04-15T11:17:02;18.43;;;12.87;;
11777;SDS011;5946;51.770;8.548;2023-04-15T11:19:35;14.70;;;11.43;;
11777;SDS011;5946;51.770;8.548;2023-04-15T11:22:08;15.53;;;11.60;;
11777;SDS011;5946;51.770;8.548;2023-04-15T11:24:35;15.57;;;11.20;;
11777;SDS011;5946;51.770;8.548;2023-04-15T11:27:01;15.33;;;11.33;;
11777;SDS011;5946;51.770;8.548;2023-04-15T11:29:33;16.43;;;11.40;;
11777;SDS011;5946;51.770;8.548;2023-04-15T11:32:08;14.20;;;10.57;;
11777;SDS011;5946;51.770;8.548;2023-04-15T11:34:34;19.67;;;11.67;;
11777;SDS011;5946;51.770;8.548;2023-04-15T11:37:06;15.33;;;11.47;;
11777;SDS011;5946;51.770;8.548;2023-04-15T11:39:32;13.90;;;10.47;;
11777;SDS011;5946;51.770;8.548;2023-04-15T11:41:58;14.60;;;10.40;;
11777;SDS011;5946;51.770;8.548;2023-04-15T11:44:24;13.13;;;10.83;;
11777;SDS011;5946;51.770;8.548;2023-04-15T11:46:50;17.33;;;10.73;;
11777;SDS011;5946;51.770;8.548;2023-04-15T11:49:29;14.53;;;10.73;;
11777;SDS011;5946;51.770;8.548;2023-04-15T11:51:55;14.17;;;10.13;;
11777;SDS011;5946;51.770;8.548;2023-04-15T11:54:21;16.80;;;10.40;;
11777;SDS011;5946;51.770;8.548;2023-04-15T11:56:50;14.37;;;10.50;;
11777;SDS011;5946;51.770;8.548;2023-04-15T11:59:18;12.43;;;10.13;;
11777;SDS011;5946;51.770;8.548;2023-04-15T12:01:44;14.80;;;10.63;;
11777;SDS011;5946;51.770;8.548;2023-04-15T12:04:12;14.77;;;11.33;;
11777;SDS011;5946;51.770;8.548;2023-04-15T12:06:38;16.00;;;10.60;;
11777;SDS011;5946;51.770;8.548;2023-04-15T12:14:04;14.57;;;11.10;;
11777;SDS011;5946;51.770;8.548;2023-04-15T12:16:30;14.43;;;11.07;;
11777;SDS011;5946;51.770;8.548;2023-04-15T12:18:58;14.17;;;11.27;;
11777;SDS011;5946;51.770;8.548;2023-04-15T12:21:25;16.23;;;10.87;;
11777;SDS011;5946;51.770;8.548;2023-04-15T12:26:18;14.70;;;11.50;;
11777;SDS011;5946;51.770;8.548;2023-04-15T12:28:52;13.60;;;10.80;;
11777;SDS011;5946;51.770;8.548;2023-04-15T12:31:19;15.43;;;11.30;;
11777;SDS011;5946;51.770;8.548;2023-04-15T12:33:47;13.27;;;11.33;;
11777;SDS011;5946;51.770;8.548;2023-04-15T12:36:13;13.87;;;10.57;;
11777;SDS011;5946;51.770;8.548;2023-04-15T12:38:39;15.73;;;11.20;;
11777;SDS011;5946;51.770;8.548;2023-04-15T12:41:05;13.60;;;10.57;;
11777;SDS011;5946;51.770;8.548;2023-04-15T12:43:31;12.23;;;10.13;;
11777;SDS011;5946;51.770;8.548;2023-04-15T12:45:57;12.73;;;9.83;;
11777;SDS011;5946;51.770;8.548;2023-04-15T12:48:23;24.87;;;10.90;;
11777;SDS011;5946;51.770;8.548;2023-04-15T12:50:49;14.33;;;11.37;;
11777;SDS011;5946;51.770;8.548;2023-04-15T12:53:15;13.17;;;10.77;;
11777;SDS011;5946;51.770;8.548;2023-04-15T12:55:41;12.53;;;10.37;;
11777;SDS011;5946;51.770;8.548;2023-04-15T12:58:07;13.40;;;10.50;;
11777;SDS011;5946;51.770;8.548;2023-04-15T13:00:35;13.60;;;10.70;;
11777;SDS011;5946;51.770;8.548;2023-04-15T13:03:01;13.20;;;10.20;;
11777;SDS011;5946;51.770;8.548;2023-04-15T13:05:27;12.53;;;10.13;;
11777;SDS011;5946;51.770;8.548;2023-04-15T13:07:53;12.50;;;10.70;;
11777;SDS011;5946;51.770;8.548;2023-04-15T13:10:19;11.37;;;10.17;;
11777;SDS011;5946;51.770;8.548;2023-04-15T13:12:47;12.43;;;9.47;;
11777;SDS011;5946;51.770;8.548;2023-04-15T13:15:14;11.67;;;9.83;;
11777;SDS011;5946;51.770;8.548;2023-04-15T13:17:43;11.67;;;9.90;;
11777;SDS011;5946;51.770;8.548;2023-04-15T13:20:09;11.20;;;9.80;;
11777;SDS011;5946;51.770;8.548;2023-04-15T13:22:35;12.10;;;9.33;;
11777;SDS011;5946;51.770;8.548;2023-04-15T13:25:01;10.80;;;9.23;;
11777;SDS011;5946;51.770;8.548;2023-04-15T13:27:27;12.07;;;9.73;;
11777;SDS011;5946;51.770;8.548;2023-04-15T13:29:53;12.17;;;9.50;;
11777;SDS011;5946;51.770;8.548;2023-04-15T13:32:19;13.50;;;9.40;;
11777;SDS011;5946;51.770;8.548;2023-04-15T13:34:45;14.07;;;9.67;;
11777;SDS011;5946;51.770;8.548;2023-04-15T13:37:11;11.17;;;9.23;;
11777;SDS011;5946;51.770;8.548;2023-04-15T13:39:37;11.23;;;8.93;;
11777;SDS011;5946;51.770;8.548;2023-04-15T13:42:03;12.20;;;9.43;;
11777;SDS011;5946;51.770;8.548;2023-04-15T13:44:29;11.07;;;9.17;;
11777;SDS011;5946;51.770;8.548;2023-04-15T13:46:55;10.00;;;8.97;;
11777;SDS011;5946;51.770;8.548;2023-04-15T13:49:21;10.30;;;9.23;;
11777;SDS011;5946;51.770;8.548;2023-04-15T13:51:47;12.83;;;9.93;;
11777;SDS011;5946;51.770;8.548;2023-04-15T13:54:13;12.47;;;10.00;;
11777;SDS011;5946;51.770;8.548;2023-04-15T13:56:39;12.47;;;10.13;;
11777;SDS011;5946;51.770;8.548;2023-04-15T13:59:05;10.57;;;9.30;;
11777;SDS011;5946;51.770;8.548;2023-04-15T14:01:33;10.53;;;9.27;;
11777;SDS011;5946;51.770;8.548;2023-04-15T14:03:59;12.60;;;9.77;;
11777;SDS011;5946;51.770;8.548;2023-04-15T14:06:25;10.83;;;9.23;;
11777;SDS011;5946;51.770;8.548;2023-04-15T14:08:51;13.40;;;9.87;;
11777;SDS011;5946;51.770;8.548;2023-04-15T14:11:17;10.63;;;9.53;;
11777;SDS011;5946;51.770;8.548;2023-04-15T14:13:43;10.37;;;9.23;;
11777;SDS011;5946;51.770;8.548;2023-04-15T14:16:09;10.87;;;9.77;;
11777;SDS011;5946;51.770;8.548;2023-04-15T14:18:35;10.13;;;9.07;;
11777;SDS011;5946;51.770;8.548;2023-04-15T14:21:01;13.80;;;11.10;;
11777;SDS011;5946;51.770;8.548;2023-04-15T14:23:27;11.17;;;9.80;;
11777;SDS011;5946;51.770;8.548;2023-04-15T14:25:53;10.70;;;9.60;;
11777;SDS011;5946;51.770;8.548;2023-04-15T14:28:19;9.83;;;8.77;;
11777;SDS011;5946;51.770;8.548;2023-04-15T14:30:45;10.03;;;8.60;;
11777;SDS011;5946;51.770;8.548;2023-04-15T14:33:11;11.17;;;9.00;;
11777;SDS011;5946;51.770;8.548;2023-04-15T14:35:37;12.53;;;10.20;;
11777;SDS011;5946;51.770;8.548;2023-04-15T14:38:03;13.13;;;10.30;;
11777;SDS011;5946;51.770;8.548;2023-04-15T14:40:34;13.60;;;10.67;;
11777;SDS011;5946;51.770;8.548;2023-04-15T14:43:00;15.30;;;11.27;;
11777;SDS011;5946;51.770;8.548;2023-04-15T14:45:26;16.27;;;12.00;;
11777;SDS011;5946;51.770;8.548;2023-04-15T14:47:52;16.30;;;12.63;;